Terminal Aerodrome Forecast
Issued by NWS

Home | Current Version | Previous Version | Text Only | Print | Product List | Glossary Off
Versions: 1 2 3 4 5 6 7 8 9 10 11 12 13 14 15 16 17 18 19 20 21 22 23 24 25 26

000
FTUS43 KGRB 212300 RRA
TAFATW
TAF
KATW 212341Z 2200/2224 12005KT P6SM SCT012 BKN080
      TEMPO 2200/2203 BKN012 BKN020
     FM220300 VRB03KT 3SM BR VCSH BKN006 BKN035
     FM220700 VRB03KT 1SM BR BKN005
     FM221400 10005KT 4SM BR SCT006 BKN012
     FM221900 08006KT 6SM HZ BKN020 BKN035
     FM222200 09006KT 6SM HZ SCT025=

USA.gov is the U.S. government's official web portal to all federal, state and local government web resources and services.